Forside
METAR-TAF:

METAR-TAF

Lufthavne :

Chicago O'Hare International Airport

Chicago, Illinois, USA

Breddekreds: 41-58-47N, længdekreds: 087-54-16W, højde: 203 m

Aktuelle vejr

Denne rapport blev lavet for 45 minutter siden, kl. 23:51 UTC
Vind 13 kt fra nord
Temperatur 2°C
Fugtighed 32%
Tryk 1027 hPa
Sigt: 16.1 km
Nogle få skyer i en højde af 25000 ft

METAR: KORD 252351Z 01013KT 10SM FEW250 02/M13 A3033 RMK AO2 SLP276 T00221133 10056 20022 53012

Tid: 19:36 (00:36 UTC)

Vejrudsigter

Denne rapport blev lavet for 58 minutter siden, kl. 23:38 UTC
Foreløbig gælder fra 26 på 00 UTC til 27 på 06 UTC
Vind 12 kt fra nordnordøst
Sigt: 10 km
skyfri
Fra 26 på 0300 UTC
Vind 7 kt fra nordnordøst
Sigt: 10 km
skyfri
Fra 26 på 1400 UTC
Vind 5 kt fra øst
Sigt: 10 km
Nogle få skyer i en højde af 20000 ft
Fra 26 på 2100 UTC
Vind 10 kt fra øst
Sigt: 10 km
Spredte skyer i en højde af 20000 ft

TAF: KORD 252338Z 2600/2706 02012KT P6SM SKC FM260300 03007KT P6SM SKC FM261400 08005KT P6SM FEW200 FM262100 10010KT P6SM SCT200

Vejrobservationer og prognoser fra mere end 4000 lufthavne (METAR og TAF).

De gule og røde prikker repræsenterer de meteorologiske stationer.

Flyt musen over at se navnet på stationen.

Så klik over at se vejr observationer og prognoser.

At skifte det kort: Klik på de grønne knapper med et sort kors for at zoome ind; på den grønne knap med en bindestreg for at zoome ud; eller på de grønne pile for tilstødende kort.


METAR-TAF: